createdAt,value
2017-12-21T00:02:12.334Z,4.80
2017-12-21T00:04:38.578Z,4.80
2017-12-21T00:07:04.842Z,4.90
2017-12-21T00:09:31.812Z,4.80
2017-12-21T00:11:58.083Z,4.80
2017-12-21T00:14:24.294Z,4.80
2017-12-21T00:16:50.563Z,4.80
2017-12-21T00:19:16.803Z,4.80
2017-12-21T00:21:43.799Z,4.90
2017-12-21T00:24:10.030Z,4.90
2017-12-21T00:26:36.234Z,4.90
2017-12-21T00:29:02.478Z,4.90
2017-12-21T00:31:28.742Z,4.90
2017-12-21T00:33:54.966Z,4.90
2017-12-21T00:36:21.242Z,4.90
2017-12-21T00:38:47.477Z,4.90
2017-12-21T00:41:13.721Z,4.90
2017-12-21T00:43:39.984Z,4.90
2017-12-21T00:46:11.238Z,4.90
2017-12-21T00:48:37.566Z,4.90
2017-12-21T00:51:03.812Z,4.90
2017-12-21T00:53:30.812Z,4.90
2017-12-21T00:55:57.050Z,4.90
2017-12-21T00:58:23.257Z,4.90
2017-12-21T01:00:49.619Z,4.90
2017-12-21T01:03:15.854Z,4.90
2017-12-21T01:05:42.110Z,4.90
2017-12-21T01:08:08.388Z,4.90
2017-12-21T01:10:34.648Z,4.90
2017-12-21T01:13:01.633Z,5.00
2017-12-21T01:15:27.864Z,4.90
2017-12-21T01:17:54.092Z,5.00
2017-12-21T01:20:20.330Z,5.00
2017-12-21T01:22:46.569Z,5.00
2017-12-21T01:25:12.807Z,5.00
2017-12-21T01:27:39.170Z,5.00
2017-12-21T01:30:06.133Z,5.00
2017-12-21T01:32:32.398Z,5.00
2017-12-21T01:34:58.758Z,5.10
2017-12-21T01:37:25.735Z,5.10
2017-12-21T01:40:00.057Z,5.10
2017-12-21T01:42:27.460Z,5.10
2017-12-21T01:44:53.699Z,5.10
2017-12-21T01:47:20.697Z,5.10
2017-12-21T01:49:46.962Z,5.10
2017-12-21T01:52:13.229Z,5.10
2017-12-21T01:54:39.541Z,5.10
2017-12-21T01:57:05.818Z,5.10
2017-12-21T01:59:32.098Z,5.20
2017-12-21T02:01:58.354Z,5.10
2017-12-21T02:04:24.595Z,5.10
2017-12-21T02:06:50.851Z,5.10
2017-12-21T02:09:17.092Z,5.10
2017-12-21T02:11:43.323Z,5.10
2017-12-21T02:14:09.567Z,5.20
2017-12-21T02:16:35.821Z,5.20
2017-12-21T02:19:02.825Z,5.20
2017-12-21T02:21:29.970Z,5.20
2017-12-21T02:23:56.223Z,5.20
2017-12-21T02:26:23.218Z,5.20
2017-12-21T02:28:49.457Z,5.20
2017-12-21T02:31:15.753Z,5.20
2017-12-21T02:33:42.010Z,5.20
2017-12-21T02:36:08.244Z,5.20
2017-12-21T02:38:34.499Z,5.20
2017-12-21T02:41:00.736Z,5.30
2017-12-21T02:43:27.751Z,5.30
2017-12-21T02:45:54.009Z,5.30
2017-12-21T02:48:21.066Z,5.30
2017-12-21T02:50:48.111Z,5.30
2017-12-21T02:53:14.358Z,5.30
2017-12-21T02:55:40.639Z,5.30
2017-12-21T02:58:06.960Z,5.40
2017-12-21T03:00:33.238Z,5.40
2017-12-21T03:02:59.535Z,5.40
2017-12-21T03:05:25.769Z,5.40
2017-12-21T03:07:52.019Z,5.40
2017-12-21T03:10:18.333Z,5.40
2017-12-21T03:12:45.312Z,5.40
2017-12-21T03:15:11.553Z,5.40
2017-12-21T03:17:37.809Z,5.50
2017-12-21T03:20:04.102Z,5.50
2017-12-21T03:22:30.380Z,5.50
2017-12-21T03:24:56.658Z,5.50
2017-12-21T03:27:22.903Z,5.50
2017-12-21T03:29:49.199Z,5.50
2017-12-21T03:32:15.465Z,5.50
2017-12-21T03:34:41.705Z,5.50
2017-12-21T03:37:07.933Z,5.50
2017-12-21T03:39:34.152Z,5.60
2017-12-21T03:42:00.415Z,5.60
2017-12-21T03:44:26.661Z,5.60
2017-12-21T03:46:53.702Z,5.60
2017-12-21T03:49:20.757Z,5.60
2017-12-21T03:51:47.752Z,5.60
2017-12-21T03:54:14.022Z,5.60
2017-12-21T03:56:40.993Z,5.60
2017-12-21T03:59:07.323Z,5.60
2017-12-21T04:01:33.597Z,5.60
2017-12-21T04:04:00.586Z,5.60
2017-12-21T04:06:26.899Z,5.60
2017-12-21T04:08:53.899Z,5.60
2017-12-21T04:11:20.258Z,5.60
2017-12-21T04:13:46.511Z,5.60
2017-12-21T04:16:13.493Z,5.70
2017-12-21T04:18:39.763Z,5.60
2017-12-21T04:21:05.975Z,5.70
2017-12-21T04:23:32.260Z,5.70
2017-12-21T04:25:58.525Z,5.70
2017-12-21T04:28:24.726Z,5.70
2017-12-21T04:30:50.974Z,5.70
2017-12-21T04:33:17.189Z,5.70
2017-12-21T04:35:46.461Z,5.70
2017-12-21T04:38:14.071Z,5.70
2017-12-21T04:40:44.066Z,5.70
2017-12-21T04:43:10.334Z,5.70
2017-12-21T04:45:36.669Z,5.70
2017-12-21T04:48:02.918Z,5.70
2017-12-21T04:50:29.898Z,5.80
2017-12-21T04:52:56.140Z,5.80
2017-12-21T04:55:22.379Z,5.80
2017-12-21T04:57:48.638Z,5.80
2017-12-21T05:00:15.663Z,5.80
2017-12-21T05:02:41.898Z,5.80
2017-12-21T05:05:08.176Z,5.80
2017-12-21T05:07:34.457Z,5.80
2017-12-21T05:10:00.695Z,5.80
2017-12-21T05:12:26.970Z,5.90
2017-12-21T05:14:53.234Z,5.90
2017-12-21T05:17:20.216Z,5.90
2017-12-21T05:19:46.458Z,5.90
2017-12-21T05:22:12.716Z,5.90
2017-12-21T05:24:38.980Z,5.90
2017-12-21T05:27:05.971Z,6.00
2017-12-21T05:29:32.236Z,6.00
2017-12-21T05:31:58.523Z,6.00
2017-12-21T05:34:24.757Z,6.00
2017-12-21T05:36:51.077Z,6.00
2017-12-21T05:39:24.321Z,6.10
2017-12-21T05:41:50.594Z,6.10
2017-12-21T05:44:23.714Z,6.10
2017-12-21T05:46:49.954Z,6.10
2017-12-21T05:49:16.218Z,6.10
2017-12-21T05:51:43.229Z,6.20
2017-12-21T05:54:09.547Z,6.10
2017-12-21T05:56:35.821Z,6.10
2017-12-21T05:59:02.833Z,6.20
2017-12-21T06:01:29.141Z,6.20
2017-12-21T06:03:55.376Z,6.30
2017-12-21T06:06:21.620Z,6.20
2017-12-21T06:08:47.857Z,6.20
2017-12-21T06:11:14.076Z,6.30
2017-12-21T06:13:40.326Z,6.30
2017-12-21T06:16:06.760Z,6.30
2017-12-21T06:18:33.160Z,6.30
2017-12-21T06:20:59.395Z,6.30
2017-12-21T06:23:25.638Z,6.30
2017-12-21T06:25:52.055Z,6.30
2017-12-21T06:28:18.283Z,6.30
2017-12-21T06:30:44.552Z,6.30
2017-12-21T06:33:10.831Z,6.30
2017-12-21T06:35:37.089Z,6.30
2017-12-21T06:38:04.153Z,6.40
2017-12-21T06:40:31.152Z,6.40
2017-12-21T06:42:57.457Z,6.40
2017-12-21T06:45:23.787Z,6.40
2017-12-21T06:47:50.071Z,6.40
2017-12-21T06:50:16.496Z,6.40
2017-12-21T06:52:43.566Z,6.40
2017-12-21T06:55:10.624Z,6.40
2017-12-21T06:57:36.988Z,6.40
2017-12-21T07:00:03.274Z,6.40
2017-12-21T07:02:29.561Z,6.40
2017-12-21T07:04:55.838Z,6.40
2017-12-21T07:07:22.111Z,6.50
2017-12-21T07:09:48.437Z,6.50
2017-12-21T07:12:14.724Z,6.50
2017-12-21T07:14:41.018Z,6.50
2017-12-21T07:17:07.339Z,6.50
2017-12-21T07:19:33.603Z,6.50
2017-12-21T07:22:00.633Z,6.60
2017-12-21T07:24:27.115Z,6.60
2017-12-21T07:26:53.446Z,6.60
2017-12-21T07:29:19.864Z,6.60
2017-12-21T07:31:46.206Z,6.60
2017-12-21T07:34:12.739Z,6.60
2017-12-21T07:36:39.113Z,6.60
2017-12-21T07:39:05.477Z,6.60
2017-12-21T07:41:31.823Z,6.70
2017-12-21T07:43:58.129Z,6.60
2017-12-21T07:46:25.245Z,6.70
2017-12-21T07:48:51.538Z,6.70
2017-12-21T07:51:17.837Z,6.70
2017-12-21T07:53:44.986Z,6.70
2017-12-21T07:56:12.003Z,6.70
2017-12-21T07:58:38.406Z,6.70
2017-12-21T08:01:04.689Z,6.70
2017-12-21T08:03:31.716Z,6.70
2017-12-21T08:05:58.796Z,6.80
2017-12-21T08:08:25.076Z,6.80
2017-12-21T08:10:51.456Z,6.80
2017-12-21T08:13:18.663Z,6.80
2017-12-21T08:15:45.947Z,6.80
2017-12-21T08:18:12.273Z,6.80
2017-12-21T08:20:39.478Z,6.80
2017-12-21T08:23:05.732Z,6.80
2017-12-21T08:25:32.377Z,6.80
2017-12-21T08:27:59.455Z,6.80
2017-12-21T08:30:25.819Z,6.90
2017-12-21T08:32:52.204Z,6.90
2017-12-21T08:35:18.522Z,6.90
2017-12-21T08:37:44.789Z,6.90
2017-12-21T08:40:11.054Z,6.90
2017-12-21T08:42:37.438Z,7.00
2017-12-21T08:45:03.770Z,7.00
2017-12-21T08:47:30.227Z,6.90
2017-12-21T08:49:56.713Z,7.00
2017-12-21T08:52:22.968Z,7.00
2017-12-21T08:54:50.020Z,7.00
2017-12-21T08:57:16.368Z,7.00
2017-12-21T08:59:42.707Z,7.00
2017-12-21T09:02:09.015Z,7.00
2017-12-21T09:04:35.375Z,7.10
2017-12-21T09:07:01.675Z,7.00
2017-12-21T09:09:27.919Z,7.10
2017-12-21T09:11:54.206Z,7.10
2017-12-21T09:14:20.455Z,7.10
2017-12-21T09:16:46.714Z,7.20
2017-12-21T09:19:13.032Z,7.20
2017-12-21T09:21:39.312Z,7.20
2017-12-21T09:24:05.639Z,7.20
2017-12-21T09:26:31.950Z,7.20
2017-12-21T09:28:58.189Z,7.20
2017-12-21T09:31:24.502Z,7.20
2017-12-21T09:33:50.844Z,7.20
2017-12-21T09:36:17.135Z,7.30
2017-12-21T09:38:43.407Z,7.30
2017-12-21T09:41:09.648Z,7.30
2017-12-21T09:43:36.691Z,7.30
2017-12-21T09:46:03.010Z,7.30
2017-12-21T09:48:29.273Z,7.40
2017-12-21T09:50:57.581Z,7.40
2017-12-21T09:53:26.848Z,7.40
2017-12-21T09:55:53.210Z,7.40
2017-12-21T09:58:19.513Z,7.50
2017-12-21T10:00:46.708Z,7.50
2017-12-21T10:03:13.775Z,7.60
2017-12-21T10:05:40.021Z,7.50
2017-12-21T10:08:06.246Z,7.50
2017-12-21T10:10:32.594Z,7.50
2017-12-21T10:12:58.897Z,7.60
2017-12-21T10:15:26.036Z,7.60
2017-12-21T10:17:52.297Z,7.60
2017-12-21T10:20:18.815Z,7.60
2017-12-21T10:22:45.369Z,7.60
2017-12-21T10:25:11.852Z,7.60
2017-12-21T10:27:40.312Z,7.60
2017-12-21T10:30:06.766Z,7.60
2017-12-21T10:32:33.102Z,7.60
2017-12-21T10:34:59.502Z,7.60
2017-12-21T10:37:25.938Z,7.70
2017-12-21T10:39:53.193Z,7.70
2017-12-21T10:42:19.557Z,7.70
2017-12-21T10:44:45.823Z,7.70
2017-12-21T10:47:12.224Z,7.60
2017-12-21T10:49:38.538Z,7.70
2017-12-21T10:52:04.858Z,7.60
2017-12-21T10:54:31.717Z,7.70
2017-12-21T10:56:57.961Z,7.60
2017-12-21T10:59:24.269Z,7.60
2017-12-21T11:01:51.317Z,7.60
2017-12-21T11:04:19.648Z,7.60
2017-12-21T11:06:46.012Z,7.70
2017-12-21T11:09:12.250Z,7.70
2017-12-21T11:11:38.535Z,7.60
2017-12-21T11:14:04.863Z,7.60
2017-12-21T11:16:31.178Z,7.60
2017-12-21T11:18:57.904Z,7.70
2017-12-21T11:21:25.014Z,7.70
2017-12-21T11:23:51.327Z,7.70
2017-12-21T11:26:17.605Z,7.70
2017-12-21T11:28:44.635Z,7.70
2017-12-21T11:31:11.711Z,7.70
2017-12-21T11:33:38.090Z,7.70
2017-12-21T11:36:04.404Z,7.70
2017-12-21T11:38:30.738Z,7.70
2017-12-21T11:40:57.071Z,7.70
2017-12-21T11:43:23.363Z,7.60
2017-12-21T11:45:50.610Z,7.60
2017-12-21T11:48:16.966Z,7.60
2017-12-21T11:50:43.229Z,7.60
2017-12-21T11:53:09.527Z,7.60
2017-12-21T11:55:35.827Z,7.50
2017-12-21T11:58:02.114Z,7.50
2017-12-21T12:00:28.447Z,7.50
2017-12-21T12:02:54.742Z,7.50
2017-12-21T12:05:21.034Z,7.50
2017-12-21T12:07:48.160Z,7.50
2017-12-21T12:10:14.458Z,7.50
2017-12-21T12:12:40.768Z,7.50
2017-12-21T12:15:07.049Z,7.50
2017-12-21T12:17:33.273Z,7.40
2017-12-21T12:19:59.525Z,7.50
2017-12-21T12:22:25.801Z,7.40
2017-12-21T12:24:52.109Z,7.40
2017-12-21T12:27:19.105Z,7.40
2017-12-21T12:29:46.346Z,7.40
2017-12-21T12:32:12.709Z,7.40
2017-12-21T12:34:39.818Z,7.40
2017-12-21T12:37:06.118Z,7.40
2017-12-21T12:39:32.470Z,7.40
2017-12-21T12:41:59.672Z,7.40
2017-12-21T12:44:25.966Z,7.40
2017-12-21T12:46:52.282Z,7.50
2017-12-21T12:49:18.646Z,7.50
2017-12-21T12:51:44.898Z,7.50
2017-12-21T12:54:11.117Z,7.50
2017-12-21T12:56:37.391Z,7.50
2017-12-21T12:59:03.633Z,7.50
2017-12-21T13:01:29.880Z,7.60
2017-12-21T13:03:56.138Z,7.50
2017-12-21T13:06:22.403Z,7.50
2017-12-21T13:08:49.421Z,7.40
2017-12-21T13:11:15.824Z,7.50
2017-12-21T13:13:42.155Z,7.40
2017-12-21T13:16:08.728Z,7.40
2017-12-21T13:18:35.089Z,7.40
2017-12-21T13:21:01.420Z,7.40
2017-12-21T13:23:27.750Z,7.40
2017-12-21T13:25:54.868Z,7.40
2017-12-21T13:28:21.915Z,7.40
2017-12-21T13:30:48.173Z,7.40
2017-12-21T13:33:14.420Z,7.40
2017-12-21T13:35:40.724Z,7.30
2017-12-21T13:38:07.015Z,7.30
2017-12-21T13:40:33.390Z,7.20
2017-12-21T13:42:59.659Z,7.20
2017-12-21T13:45:26.692Z,7.10
2017-12-21T13:47:53.504Z,7.10
2017-12-21T13:50:19.891Z,7.10
2017-12-21T13:52:46.999Z,7.10
2017-12-21T13:55:14.294Z,7.10
2017-12-21T13:57:41.073Z,7.00
2017-12-21T14:00:07.650Z,7.00
2017-12-21T14:02:34.089Z,7.00
2017-12-21T14:05:01.142Z,7.00
2017-12-21T14:07:28.356Z,7.00
2017-12-21T14:09:54.667Z,7.00
2017-12-21T14:12:20.953Z,7.00
2017-12-21T14:14:47.181Z,7.00
2017-12-21T14:17:14.473Z,6.90
2017-12-21T14:19:40.771Z,6.90
2017-12-21T14:22:07.773Z,6.90
2017-12-21T14:24:34.110Z,6.90
2017-12-21T14:27:00.394Z,6.90
2017-12-21T14:29:27.229Z,6.90
2017-12-21T14:31:53.514Z,6.90
2017-12-21T14:34:19.758Z,6.80
2017-12-21T14:36:46.048Z,6.80
2017-12-21T14:39:12.373Z,6.80
2017-12-21T14:41:39.089Z,6.80
2017-12-21T14:44:06.111Z,6.80
2017-12-21T14:46:32.384Z,6.80
2017-12-21T14:48:58.667Z,6.80
2017-12-21T14:51:25.052Z,6.80
2017-12-21T14:53:52.991Z,6.80
2017-12-21T14:56:19.264Z,6.70
2017-12-21T14:58:45.534Z,6.70
2017-12-21T15:01:12.703Z,6.70
2017-12-21T15:03:40.034Z,6.70
2017-12-21T15:06:07.453Z,6.70
2017-12-21T15:08:33.836Z,6.60
2017-12-21T15:11:00.893Z,6.60
2017-12-21T15:13:27.869Z,6.60
2017-12-21T15:15:54.546Z,6.60
2017-12-21T15:18:20.884Z,6.60
2017-12-21T15:20:47.949Z,6.60
2017-12-21T15:23:15.482Z,6.60
2017-12-21T15:25:42.017Z,6.60
2017-12-21T15:28:08.323Z,6.60
2017-12-21T15:30:34.592Z,6.60
2017-12-21T15:33:01.668Z,6.60
2017-12-21T15:35:27.963Z,6.50
2017-12-21T15:37:54.256Z,6.50
2017-12-21T15:40:20.517Z,6.50
2017-12-21T15:42:46.804Z,6.50
2017-12-21T15:45:13.066Z,6.40
2017-12-21T15:47:39.311Z,6.40
2017-12-21T15:50:06.362Z,6.40
2017-12-21T15:52:33.352Z,6.50
2017-12-21T15:54:59.667Z,6.40
2017-12-21T15:57:25.906Z,6.40
2017-12-21T15:59:52.225Z,6.40
2017-12-21T16:02:18.593Z,6.40
2017-12-21T16:04:44.978Z,6.40
2017-12-21T16:07:11.418Z,6.40
2017-12-21T16:09:37.742Z,6.40
2017-12-21T16:12:04.109Z,6.40
2017-12-21T16:14:30.468Z,6.40
2017-12-21T16:16:56.760Z,6.40
2017-12-21T16:19:23.036Z,6.40
2017-12-21T16:21:49.387Z,6.40
2017-12-21T16:24:15.653Z,6.30
2017-12-21T16:26:41.997Z,6.30
2017-12-21T16:29:08.302Z,6.30
2017-12-21T16:31:34.571Z,6.30
2017-12-21T16:34:01.612Z,6.30
2017-12-21T16:36:27.864Z,6.30
2017-12-21T16:38:54.481Z,6.30
2017-12-21T16:41:20.834Z,6.20
2017-12-21T16:43:47.892Z,6.20
2017-12-21T16:46:14.232Z,6.20
2017-12-21T16:48:40.542Z,6.20
2017-12-21T16:51:07.668Z,6.20
2017-12-21T16:53:34.004Z,6.20
2017-12-21T16:56:01.581Z,6.10
2017-12-21T16:58:27.968Z,6.10
2017-12-21T17:00:54.314Z,6.10
2017-12-21T17:03:20.644Z,6.10
2017-12-21T17:05:46.947Z,6.00
2017-12-21T17:08:13.359Z,6.00
2017-12-21T17:10:39.667Z,6.00
2017-12-21T17:13:06.003Z,5.90
2017-12-21T17:15:32.322Z,5.90
2017-12-21T17:17:58.656Z,5.90
2017-12-21T17:20:24.924Z,5.90
2017-12-21T17:22:51.449Z,5.90
2017-12-21T17:25:17.868Z,5.90
2017-12-21T17:27:44.295Z,6.00
2017-12-21T17:30:10.671Z,6.00
2017-12-21T17:32:37.037Z,5.90
2017-12-21T17:35:03.459Z,5.90
2017-12-21T17:37:29.874Z,6.00
2017-12-21T17:39:56.176Z,5.90
2017-12-21T17:42:22.474Z,5.90
2017-12-21T17:44:48.959Z,5.90
2017-12-21T17:47:15.652Z,5.90
2017-12-21T17:49:42.068Z,5.90
2017-12-21T17:52:09.208Z,5.90
2017-12-21T17:54:35.618Z,5.90
2017-12-21T17:57:02.675Z,5.90
2017-12-21T17:59:29.116Z,5.90
2017-12-21T18:01:55.920Z,5.90
2017-12-21T18:04:22.258Z,5.80
2017-12-21T18:06:48.587Z,5.90
2017-12-21T18:09:14.890Z,5.80
2017-12-21T18:11:42.094Z,5.80
2017-12-21T18:14:08.601Z,5.80
2017-12-21T18:16:35.227Z,5.70
2017-12-21T18:19:01.582Z,5.70
2017-12-21T18:21:28.156Z,5.80
2017-12-21T18:23:54.686Z,5.70
2017-12-21T18:26:21.406Z,5.80
2017-12-21T18:28:48.097Z,5.70
2017-12-21T18:31:14.506Z,5.70
2017-12-21T18:33:41.634Z,5.70
2017-12-21T18:36:08.058Z,5.70
2017-12-21T18:38:34.298Z,5.70
2017-12-21T18:41:01.324Z,5.70
2017-12-21T18:43:29.554Z,5.70
2017-12-21T18:45:56.366Z,5.60
2017-12-21T18:48:22.787Z,5.60
2017-12-21T18:50:49.894Z,5.60
2017-12-21T18:53:16.143Z,5.60
2017-12-21T18:55:42.483Z,5.60
2017-12-21T18:58:08.843Z,5.60
2017-12-21T19:00:35.208Z,5.50
2017-12-21T19:03:01.677Z,5.50
2017-12-21T19:05:28.715Z,5.60
2017-12-21T19:07:55.111Z,5.60
2017-12-21T19:10:21.342Z,5.50
2017-12-21T19:12:47.619Z,5.50
2017-12-21T19:15:14.654Z,5.50
2017-12-21T19:17:40.919Z,5.50
2017-12-21T19:20:08.082Z,5.50
2017-12-21T19:22:34.404Z,5.50
2017-12-21T19:25:00.891Z,5.50
2017-12-21T19:27:27.955Z,5.40
2017-12-21T19:29:54.260Z,5.40
2017-12-21T19:32:21.683Z,5.40
2017-12-21T19:34:48.074Z,5.50
2017-12-21T19:37:14.883Z,5.40
2017-12-21T19:39:41.346Z,5.50
2017-12-21T19:42:07.665Z,5.40
2017-12-21T19:44:33.985Z,5.40
2017-12-21T19:47:00.370Z,5.40
2017-12-21T19:49:26.734Z,5.40
2017-12-21T19:51:53.091Z,5.50
2017-12-21T19:54:20.280Z,5.40
2017-12-21T19:56:48.554Z,5.40
2017-12-21T19:59:15.224Z,5.40
2017-12-21T20:01:41.615Z,5.30
2017-12-21T20:04:07.898Z,5.30
2017-12-21T20:06:34.662Z,5.30
2017-12-21T20:09:01.035Z,5.30
2017-12-21T20:11:27.312Z,5.20
2017-12-21T20:13:54.360Z,5.20
2017-12-21T20:16:21.365Z,5.30
2017-12-21T20:18:47.693Z,5.30
2017-12-21T20:21:14.060Z,5.30
2017-12-21T20:23:46.864Z,5.30
2017-12-21T20:26:13.862Z,5.30
2017-12-21T20:28:40.149Z,5.30
2017-12-21T20:31:07.312Z,5.30
2017-12-21T20:33:34.967Z,5.20
2017-12-21T20:36:01.266Z,5.30
2017-12-21T20:38:27.546Z,5.30
2017-12-21T20:40:54.727Z,5.30
2017-12-21T20:43:21.005Z,5.30
2017-12-21T20:45:51.835Z,5.30
2017-12-21T20:48:18.867Z,5.30
2017-12-21T20:50:45.946Z,5.30
2017-12-21T20:53:23.393Z,5.30
2017-12-21T20:55:50.796Z,5.30
2017-12-21T20:58:21.041Z,5.30
2017-12-21T21:00:48.054Z,5.30
2017-12-21T21:03:14.436Z,5.30
2017-12-21T21:05:42.513Z,5.30
2017-12-21T21:08:10.477Z,5.30
2017-12-21T21:10:37.816Z,5.30
2017-12-21T21:13:05.206Z,5.30
2017-12-21T21:15:32.871Z,5.30
2017-12-21T21:17:59.133Z,5.30
2017-12-21T21:20:26.721Z,5.30
2017-12-21T21:22:54.747Z,5.20
2017-12-21T21:25:21.081Z,5.30
2017-12-21T21:27:48.463Z,5.30
2017-12-21T21:30:14.864Z,5.30
2017-12-21T21:32:41.126Z,5.30
2017-12-21T21:35:07.477Z,5.20
2017-12-21T21:37:34.716Z,5.20
2017-12-21T21:40:00.981Z,5.20
2017-12-21T21:42:27.348Z,5.20
2017-12-21T21:44:53.603Z,5.20
2017-12-21T21:47:19.900Z,5.20
2017-12-21T21:49:46.170Z,5.20
2017-12-21T21:52:12.494Z,5.20
2017-12-21T21:54:38.758Z,5.20
2017-12-21T21:57:05.812Z,5.30
2017-12-21T21:59:32.854Z,5.20
2017-12-21T22:01:59.902Z,5.20
2017-12-21T22:04:26.903Z,5.20
2017-12-21T22:06:53.266Z,5.20
2017-12-21T22:09:19.623Z,5.20
2017-12-21T22:11:46.603Z,5.20
2017-12-21T22:14:12.902Z,5.20
2017-12-21T22:16:39.796Z,5.30
2017-12-21T22:19:06.198Z,5.30
2017-12-21T22:21:32.583Z,5.30
2017-12-21T22:23:59.764Z,5.30
2017-12-21T22:26:26.045Z,5.30
2017-12-21T22:28:52.292Z,5.30
2017-12-21T22:31:19.315Z,5.30
2017-12-21T22:33:45.606Z,5.40
2017-12-21T22:36:12.475Z,5.30
2017-12-21T22:38:38.775Z,5.30
2017-12-21T22:41:05.013Z,5.30
2017-12-21T22:43:31.294Z,5.30
2017-12-21T22:45:57.534Z,5.30
2017-12-21T22:48:24.663Z,5.30
2017-12-21T22:50:51.051Z,5.30
2017-12-21T22:53:17.373Z,5.30
2017-12-21T22:55:43.735Z,5.30
2017-12-21T22:58:10.016Z,5.30
2017-12-21T23:00:37.031Z,5.30
2017-12-21T23:03:03.334Z,5.40
2017-12-21T23:05:30.383Z,5.30
2017-12-21T23:07:58.420Z,5.30
2017-12-21T23:10:24.764Z,5.30
2017-12-21T23:12:51.155Z,5.30
2017-12-21T23:15:18.233Z,5.30
2017-12-21T23:17:44.670Z,5.30
2017-12-21T23:20:10.898Z,5.30
2017-12-21T23:22:37.279Z,5.30
2017-12-21T23:25:03.525Z,5.30
2017-12-21T23:27:29.793Z,5.30
2017-12-21T23:29:56.055Z,5.30
2017-12-21T23:32:22.282Z,5.30
2017-12-21T23:34:48.569Z,5.30
2017-12-21T23:37:14.852Z,5.30
2017-12-21T23:39:41.104Z,5.30
2017-12-21T23:42:14.507Z,5.30
2017-12-21T23:44:40.774Z,5.40
2017-12-21T23:47:07.064Z,5.40
2017-12-21T23:49:33.380Z,5.30
2017-12-21T23:51:59.682Z,5.30
2017-12-21T23:54:26.059Z,5.30
2017-12-21T23:56:52.301Z,5.30
2017-12-21T23:59:25.544Z,5.40
